Time;durP1;ratioP1;P1;durP2;ratioP2;P2;SDS_P1;SDS_P2;PMS_P1;PMS_P2;Temp;Humidity;BMP_temperature;BMP_pressure;BME280_temperature;BME280_humidity;BME280_pressure;Samples;Min_cycle;Max_cycle;Signal;HPM_P1;HPM_P2
2022/12/09 00:00:07;;;;;;;17.15;12.32;;;;;;;1.61;100.00;99876.50;693022;28;1206;-71
2022/12/09 00:00:27;;;;;;;17.30;12.30;;;;;;;1.60;100.00;99877.34;692623;28;1084;-69
2022/12/09 00:00:47;;;;;;;19.50;12.97;;;;;;;1.57;100.00;99877.28;693902;28;4266;-71
2022/12/09 00:01:16;;;;;;;18.95;12.80;;;;;;;1.57;100.00;99877.28;695005;28;1566;-70
2022/12/09 00:01:37;;;;;;;17.48;11.85;;;;;;;1.55;100.00;99876.38;695502;28;1123;-72
2022/12/09 00:01:57;;;;;;;17.50;12.20;;;;;;;1.54;100.00;99874.66;696046;28;1150;-69
2022/12/09 00:02:18;;;;;;;17.83;12.20;;;;;;;1.56;100.00;99875.53;697689;28;1300;-71
2022/12/09 00:02:38;;;;;;;17.63;12.03;;;;;;;1.58;100.00;99867.84;697912;28;1262;-72
2022/12/09 00:02:58;;;;;;;19.23;11.93;;;;;;;1.57;100.00;99874.72;696684;28;1238;-71
2022/12/09 00:03:19;;;;;;;20.07;12.53;;;;;;;1.55;100.00;99868.63;697069;28;1253;-70
2022/12/09 00:03:39;;;;;;;16.63;12.15;;;;;;;1.56;100.00;99879.84;696965;28;5030;-72
2022/12/09 00:04:00;;;;;;;16.80;12.00;;;;;;;1.59;100.00;99877.31;695119;28;1290;-70
2022/12/09 00:04:20;;;;;;;17.03;11.90;;;;;;;1.59;100.00;99870.44;695450;28;1905;-72
2022/12/09 00:04:41;;;;;;;17.07;11.70;;;;;;;1.59;100.00;99870.44;694861;28;1083;-69
2022/12/09 00:05:01;;;;;;;16.50;11.60;;;;;;;1.57;100.00;99874.72;694637;28;1305;-70
2022/12/09 00:05:21;;;;;;;18.07;12.00;;;;;;;1.61;100.00;99873.06;692411;28;2165;-70
2022/12/09 00:05:42;;;;;;;18.35;12.32;;;;;;;1.61;100.00;99873.94;695623;28;1356;-71
2022/12/09 00:06:08;;;;;;;17.57;11.83;;;;;;;1.66;100.00;99874.00;696780;28;1284;-69
2022/12/09 00:06:29;;;;;;;17.30;11.57;;;;;;;1.62;100.00;99870.53;697513;28;1204;-71
2022/12/09 00:06:50;;;;;;;15.82;11.75;;;;;;;1.59;100.00;99873.00;696745;28;4272;-72
2022/12/09 00:07:10;;;;;;;15.40;11.60;;;;;;;1.58;100.00;99868.72;698329;28;1405;-71
2022/12/09 00:07:30;;;;;;;16.60;11.90;;;;;;;1.57;100.00;99869.56;698845;28;1378;-71
2022/12/09 00:07:51;;;;;;;17.03;11.67;;;;;;;1.56;100.00;99870.38;697413;28;1154;-70
2022/12/09 00:08:11;;;;;;;17.42;11.60;;;;;;;1.58;100.00;99870.41;697096;28;972;-70
2022/12/09 00:08:31;;;;;;;16.70;12.00;;;;;;;1.53;100.00;99866.03;697658;28;1346;-72
2022/12/09 00:08:53;;;;;;;17.67;12.40;;;;;;;1.50;100.00;99870.28;698305;28;1260;-70
2022/12/09 00:09:14;;;;;;;17.83;12.32;;;;;;;1.49;100.00;99858.22;693889;28;1130;-71
2022/12/09 00:09:34;;;;;;;16.17;12.02;;;;;;;1.47;100.00;99865.06;695984;28;1014;-70
2022/12/09 00:09:55;;;;;;;18.45;12.10;;;;;;;1.48;100.00;99870.25;695813;28;4526;-71
2022/12/09 00:10:15;;;;;;;16.70;11.63;;;;;;;1.48;100.00;99866.78;695638;28;1107;-71
2022/12/09 00:10:35;;;;;;;16.20;12.03;;;;;;;1.47;100.00;99870.22;695013;28;1119;-71
2022/12/09 00:10:56;;;;;;;14.73;11.60;;;;;;;1.46;100.00;99868.47;694933;28;1235;-70
2022/12/09 00:11:17;;;;;;;16.57;12.03;;;;;;;1.45;100.00;99862.44;697312;28;1151;-70
2022/12/09 00:11:37;;;;;;;17.60;12.15;;;;;;;1.43;100.00;99869.28;697004;28;1145;-71
2022/12/09 00:11:57;;;;;;;16.23;12.25;;;;;;;1.43;100.00;99868.44;699013;28;1250;-70
2022/12/09 00:12:18;;;;;;;18.87;12.70;;;;;;;1.47;100.00;99868.50;695080;28;1282;-72
2022/12/09 00:12:38;;;;;;;20.13;11.93;;;;;;;1.47;100.00;99865.06;695937;28;4457;-69
2022/12/09 00:12:58;;;;;;;16.90;11.65;;;;;;;1.47;100.00;99859.94;692931;28;1277;-70
2022/12/09 00:13:19;;;;;;;15.97;11.63;;;;;;;1.46;100.00;99865.91;694236;28;1242;-72
2022/12/09 00:13:39;;;;;;;16.38;11.68;;;;;;;1.45;100.00;99866.75;693476;28;1406;-70
2022/12/09 00:14:00;;;;;;;16.70;11.87;;;;;;;1.45;100.00;99866.75;694146;28;1087;-72
2022/12/09 00:14:20;;;;;;;18.35;12.27;;;;;;;1.44;100.00;99859.84;696264;28;1098;-71
2022/12/09 00:14:40;;;;;;;17.83;12.30;;;;;;;1.44;100.00;99862.41;695172;28;1277;-71
2022/12/09 00:15:01;;;;;;;18.58;12.07;;;;;;;1.43;100.00;99858.13;693857;28;1373;-72
2022/12/09 00:15:21;;;;;;;17.87;11.83;;;;;;;1.41;100.00;99863.22;690719;28;1436;-71
2022/12/09 00:15:42;;;;;;;20.52;12.00;;;;;;;1.40;100.00;99863.19;692798;28;4324;-70
2022/12/09 00:16:08;;;;;;;17.47;12.00;;;;;;;1.40;100.00;99865.78;694123;28;1408;-70
2022/12/09 00:16:29;;;;;;;18.02;12.15;;;;;;;1.38;100.00;99855.44;691942;28;1235;-71
2022/12/09 00:16:49;;;;;;;18.53;12.17;;;;;;;1.39;100.00;99862.34;694057;28;1298;-69
2022/12/09 00:17:09;;;;;;;17.75;12.43;;;;;;;1.40;100.00;99858.03;694641;28;1408;-70
2022/12/09 00:17:30;;;;;;;17.30;12.17;;;;;;;1.47;100.00;99865.06;695973;28;1203;-70
2022/12/09 00:17:50;;;;;;;17.27;11.70;;;;;;;1.47;100.00;99854.78;690831;28;1175;-71
2022/12/09 00:18:11;;;;;;;17.57;11.77;;;;;;;1.45;100.00;99857.28;692219;28;1134;-71
2022/12/09 00:18:31;;;;;;;18.08;12.52;;;;;;;1.46;100.00;99864.19;695715;28;1218;-70
2022/12/09 00:18:52;;;;;;;18.80;12.57;;;;;;;1.43;100.00;99859.00;692532;28;4284;-70
2022/12/09 00:19:12;;;;;;;18.38;12.25;;;;;;;1.42;100.00;99851.22;692837;28;1042;-69
2022/12/09 00:19:33;;;;;;;18.37;11.90;;;;;;;1.42;100.00;99856.38;693992;28;1194;-72
2022/12/09 00:19:54;;;;;;;19.00;11.85;;;;;;;1.46;100.00;99855.59;697570;28;1384;-71
2022/12/09 00:20:14;;;;;;;17.10;11.77;;;;;;;1.45;100.00;99857.28;693478;28;3821;-71
2022/12/09 00:20:35;;;;;;;16.52;11.82;;;;;;;1.44;100.00;99860.72;691868;28;1182;-71
2022/12/09 00:20:55;;;;;;;16.40;11.80;;;;;;;1.44;100.00;99859.84;695350;28;1151;-71
2022/12/09 00:21:18;;;;;;;16.20;11.80;;;;;;;1.42;100.00;99858.97;691894;28;1047;-69
2022/12/09 00:21:39;;;;;;;16.35;12.10;;;;;;;1.39;100.00;99857.19;691704;28;4329;-71
2022/12/09 00:21:59;;;;;;;17.10;11.73;;;;;;;1.38;100.00;99863.16;693636;28;1155;-71
2022/12/09 00:22:19;;;;;;;18.45;12.13;;;;;;;1.38;100.00;99859.75;694735;28;1517;-72
2022/12/09 00:22:39;;;;;;;17.07;11.80;;;;;;;1.37;100.00;99861.44;696904;28;1300;-71
2022/12/09 00:23:00;;;;;;;17.37;11.77;;;;;;;1.37;100.00;99858.84;698456;28;1346;-70
2022/12/09 00:23:20;;;;;;;17.15;12.18;;;;;;;1.36;100.00;99858.00;702691;28;1284;-72
2022/12/09 00:23:41;;;;;;;17.13;11.97;;;;;;;1.36;100.00;99859.72;701183;28;1158;-70
2022/12/09 00:24:06;;;;;;;15.93;11.88;;;;;;;1.35;100.00;99865.69;700731;28;1316;-72
2022/12/09 00:24:26;;;;;;;15.88;11.50;;;;;;;1.36;100.00;99859.72;700311;28;1213;-69
2022/12/09 00:24:47;;;;;;;16.60;11.90;;;;;;;1.36;100.00;99857.13;699239;28;4310;-69
2022/12/09 00:25:07;;;;;;;16.50;11.57;;;;;;;1.34;100.00;99859.69;700512;28;1051;-71
2022/12/09 00:25:27;;;;;;;16.73;11.70;;;;;;;1.39;100.00;99861.47;696862;28;1289;-71
2022/12/09 00:25:48;;;;;;;16.50;11.50;;;;;;;1.47;100.00;99860.78;696670;28;1249;-72
2022/12/09 00:26:08;;;;;;;18.03;11.97;;;;;;;1.48;100.00;99859.94;696434;28;1269;-69
2022/12/09 00:26:29;;;;;;;16.35;11.63;;;;;;;1.46;100.00;99855.59;693785;28;1186;-70
2022/12/09 00:26:50;;;;;;;17.65;11.90;;;;;;;1.45;100.00;99856.44;694209;28;1242;-72
2022/12/09 00:27:10;;;;;;;17.70;12.03;;;;;;;1.47;100.00;99862.50;694005;28;1278;-69
2022/12/09 00:27:30;;;;;;;16.90;11.73;;;;;;;1.44;100.00;99858.16;695924;28;1398;-71
2022/12/09 00:27:51;;;;;;;17.05;12.00;;;;;;;1.42;100.00;99856.38;696598;28;4472;-70
2022/12/09 00:28:12;;;;;;;17.10;11.87;;;;;;;1.41;100.00;99857.22;699912;28;1157;-70
2022/12/09 00:28:32;;;;;;;15.70;11.48;;;;;;;1.39;100.00;99858.91;698554;28;1209;-70
2022/12/09 00:28:54;;;;;;;17.57;11.83;;;;;;;1.38;100.00;99857.16;698269;28;1221;-71
2022/12/09 00:29:14;;;;;;;17.00;11.98;;;;;;;1.37;100.00;99856.28;699113;28;1002;-70
2022/12/09 00:29:35;;;;;;;16.70;12.27;;;;;;;1.35;100.00;99856.25;699919;28;1150;-72
2022/12/09 00:29:55;;;;;;;18.53;12.17;;;;;;;1.39;100.00;99864.06;698623;28;1131;-71
2022/12/09 00:30:15;;;;;;;18.57;12.10;;;;;;;1.48;100.00;99854.81;695471;28;1131;-72
2022/12/09 00:30:36;;;;;;;16.98;11.88;;;;;;;1.47;100.00;99859.94;697974;28;1639;-70
2022/12/09 00:31:00;;;;;;;17.23;11.73;;;;;;;1.49;100.00;99864.25;695008;28;4431;-69
2022/12/09 00:31:24;;;;;;;15.95;11.43;;;;;;;1.49;100.00;99859.09;693750;28;1433;-70
2022/12/09 00:31:44;;;;;;;16.05;11.38;;;;;;;1.48;100.00;99859.06;689637;28;1463;-69
2022/12/09 00:32:04;;;;;;;16.40;11.57;;;;;;;1.45;100.00;99859.88;687797;28;1332;-70
2022/12/09 00:32:25;;;;;;;15.83;11.67;;;;;;;1.43;100.00;99858.13;686540;28;1495;-71
2022/12/09 00:32:45;;;;;;;16.85;11.85;;;;;;;1.43;100.00;99863.28;686757;28;1136;-69
2022/12/09 00:33:06;;;;;;;18.02;11.88;;;;;;;1.53;100.00;99865.19;688204;28;1167;-71
2022/12/09 00:33:29;;;;;;;18.50;12.03;;;;;;;1.53;100.00;99863.47;689745;28;1039;-71
2022/12/09 00:33:51;;;;;;;16.65;11.68;;;;;;;1.60;100.00;99866.16;693179;28;4373;-71
2022/12/09 00:34:12;;;;;;;16.40;11.88;;;;;;;1.57;100.00;99866.97;693600;28;1370;-71
2022/12/09 00:34:33;;;;;;;16.35;11.77;;;;;;;1.53;100.00;99866.03;693448;28;1136;-70
2022/12/09 00:34:53;;;;;;;17.08;11.50;;;;;;;1.51;100.00;99864.28;692828;28;1080;-70
2022/12/09 00:35:13;;;;;;;18.33;11.90;;;;;;;1.47;100.00;99859.94;693659;28;1246;-70
2022/12/09 00:35:34;;;;;;;16.95;12.20;;;;;;;1.45;100.00;99861.59;696866;28;1282;-71
2022/12/09 00:35:54;;;;;;;16.60;12.13;;;;;;;1.44;100.00;99859.84;693926;28;1135;-71
2022/12/09 00:36:18;;;;;;;15.83;12.13;;;;;;;1.42;100.00;99861.53;695978;28;1251;-69
2022/12/09 00:36:39;;;;;;;16.75;11.95;;;;;;;1.42;100.00;99866.69;693850;28;1179;-70
2022/12/09 00:36:59;;;;;;;16.73;11.88;;;;;;;1.41;100.00;99865.78;691158;28;4311;-70
2022/12/09 00:37:19;;;;;;;18.33;11.88;;;;;;;1.39;100.00;99857.19;691494;28;1174;-71
2022/12/09 00:37:40;;;;;;;18.65;12.00;;;;;;;1.40;100.00;99856.34;692732;28;1319;-71
2022/12/09 00:38:01;;;;;;;17.07;12.40;;;;;;;1.40;100.00;99858.03;691311;28;1294;-70
2022/12/09 00:38:21;;;;;;;17.52;12.27;;;;;;;1.39;100.00;99861.47;692806;28;1220;-71
2022/12/09 00:38:42;;;;;;;19.10;12.80;;;;;;;1.37;100.00;99853.69;698442;28;1631;-70
2022/12/09 00:39:03;;;;;;;17.80;12.00;;;;;;;1.39;100.00;99861.47;698438;28;4883;-70
2022/12/09 00:39:24;;;;;;;16.80;11.82;;;;;;;1.42;100.00;99862.38;698483;28;1297;-71
2022/12/09 00:39:44;;;;;;;16.45;12.32;;;;;;;1.42;100.00;99862.38;697028;28;4355;-71
2022/12/09 00:40:05;;;;;;;16.70;12.30;;;;;;;1.42;100.00;99862.38;701297;28;999;-69
2022/12/09 00:40:28;;;;;;;17.40;12.60;;;;;;;1.42;100.00;99858.97;703030;28;968;-71
2022/12/09 00:40:49;;;;;;;19.98;13.05;;;;;;;1.47;100.00;99859.94;698277;28;1178;-72
2022/12/09 00:41:10;;;;;;;17.52;12.77;;;;;;;1.47;100.00;99865.06;697145;28;1159;-70
2022/12/09 00:41:30;;;;;;;16.73;11.90;;;;;;;1.43;100.00;99858.13;698518;28;1096;-69
2022/12/09 00:41:50;;;;;;;18.25;12.18;;;;;;;1.41;100.00;99854.63;697171;28;1281;-71
2022/12/09 00:42:12;;;;;;;18.98;12.27;;;;;;;1.40;100.00;99858.03;696384;28;1194;-71
2022/12/09 00:42:32;;;;;;;18.63;12.07;;;;;;;1.36;100.00;99858.00;695439;28;1036;-71
2022/12/09 00:42:52;;;;;;;18.05;12.45;;;;;;;1.38;100.00;99858.03;690843;28;4334;-69
2022/12/09 00:43:13;;;;;;;17.25;12.20;;;;;;;1.38;100.00;99857.16;696354;28;1354;-71
2022/12/09 00:43:34;;;;;;;17.00;12.37;;;;;;;1.35;100.00;99861.41;693462;28;1515;-71
2022/12/09 00:43:55;;;;;;;18.45;12.48;;;;;;;1.31;100.00;99857.03;694165;28;1111;-71
2022/12/09 00:44:16;;;;;;;17.45;12.40;;;;;;;1.31;100.00;99857.03;693423;28;1984;-71
2022/12/09 00:44:36;;;;;;;18.98;12.43;;;;;;;1.32;100.00;99860.50;693599;28;1234;-71
2022/12/09 00:44:57;;;;;;;17.73;12.20;;;;;;;1.30;100.00;99852.75;697018;28;1305;-70
2022/12/09 00:45:17;;;;;;;18.07;11.93;;;;;;;1.30;100.00;99859.56;694790;28;1468;-70
2022/12/09 00:45:38;;;;;;;19.13;12.38;;;;;;;1.30;100.00;99862.16;693713;28;1219;-71
2022/12/09 00:45:59;;;;;;;17.10;12.50;;;;;;;1.30;100.00;99852.75;695008;28;4653;-71
2022/12/09 00:46:19;;;;;;;16.63;12.15;;;;;;;1.29;100.00;99861.28;694856;28;1060;-70
2022/12/09 00:46:40;;;;;;;17.80;12.05;;;;;;;1.29;100.00;99856.13;697274;28;1218;-71
2022/12/09 00:47:00;;;;;;;17.20;11.90;;;;;;;1.33;100.00;99855.38;696261;28;1094;-69
2022/12/09 00:47:20;;;;;;;16.65;11.70;;;;;;;1.32;100.00;99857.91;695911;28;1168;-71
2022/12/09 00:47:41;;;;;;;15.50;11.80;;;;;;;1.31;100.00;99859.59;696887;28;1079;-70
2022/12/09 00:48:01;;;;;;;16.63;12.40;;;;;;;1.29;100.00;99856.13;698235;28;1094;-69
2022/12/09 00:48:21;;;;;;;17.17;12.10;;;;;;;1.27;100.00;99862.94;697071;28;1102;-69
2022/12/09 00:48:44;;;;;;;16.87;11.97;;;;;;;1.28;100.00;99853.53;696828;28;4527;-71
2022/12/09 00:49:04;;;;;;;16.85;12.40;;;;;;;1.26;100.00;99863.81;694265;28;1639;-70
2022/12/09 00:49:24;;;;;;;17.43;12.40;;;;;;;1.28;100.00;99864.69;695301;28;1270;-71
2022/12/09 00:49:45;;;;;;;18.25;12.50;;;;;;;1.31;100.00;99858.75;695098;28;1260;-69
2022/12/09 00:50:06;;;;;;;19.93;12.60;;;;;;;1.31;100.00;99858.75;692540;28;1122;-68
2022/12/09 00:50:26;;;;;;;19.40;12.48;;;;;;;1.31;100.00;99858.75;693009;28;1304;-72
2022/12/09 00:50:46;;;;;;;17.97;12.03;;;;;;;1.28;100.00;99864.69;693461;28;1159;-70
2022/12/09 00:51:09;;;;;;;19.30;12.38;;;;;;;1.27;100.00;99857.81;696077;28;1035;-69
2022/12/09 00:51:30;;;;;;;17.65;11.98;;;;;;;1.28;100.00;99858.69;696649;28;1104;-71
2022/12/09 00:51:52;;;;;;;16.77;11.97;;;;;;;1.26;100.00;99863.81;693744;28;4373;-68
2022/12/09 00:52:13;;;;;;;17.67;12.15;;;;;;;1.26;100.00;99857.78;696518;28;2140;-71
2022/12/09 00:52:33;;;;;;;17.67;12.20;;;;;;;1.24;100.00;99857.75;699831;28;1419;-70
2022/12/09 00:52:53;;;;;;;17.90;12.33;;;;;;;1.24;100.00;99860.31;692194;28;1501;-70
2022/12/09 00:53:14;;;;;;;19.05;12.77;;;;;;;1.22;100.00;99864.59;693585;28;1238;-69
2022/12/09 00:53:35;;;;;;;19.00;12.60;;;;;;;1.27;100.00;99862.09;693184;28;1486;-71
2022/12/09 00:53:55;;;;;;;17.67;12.15;;;;;;;1.26;100.00;99855.19;694159;28;1248;-69
2022/12/09 00:54:15;;;;;;;17.30;12.20;;;;;;;1.35;100.00;99855.38;692344;28;1375;-71
2022/12/09 00:54:36;;;;;;;18.70;12.43;;;;;;;1.32;100.00;99861.34;694766;28;1341;-72
2022/12/09 00:54:56;;;;;;;17.10;11.93;;;;;;;1.30;100.00;99862.16;695874;28;4433;-72
2022/12/09 00:55:17;;;;;;;16.98;11.70;;;;;;;1.27;100.00;99855.22;697082;28;1289;-71
2022/12/09 00:55:37;;;;;;;16.80;11.70;;;;;;;1.27;100.00;99856.94;700194;28;1639;-70
2022/12/09 00:55:58;;;;;;;17.45;12.48;;;;;;;1.25;100.00;99854.34;698655;28;1325;-72
2022/12/09 00:56:23;;;;;;;18.10;12.77;;;;;;;1.26;100.00;99861.25;699721;28;1419;-72
2022/12/09 00:56:43;;;;;;;18.10;12.15;;;;;;;1.25;100.00;99858.63;695751;28;1163;-70
2022/12/09 00:57:04;;;;;;;16.77;12.25;;;;;;;1.24;100.00;99860.31;698713;28;1238;-70
2022/12/09 00:57:24;;;;;;;18.60;12.77;;;;;;;1.23;100.00;99862.88;696145;28;1145;-72
2022/12/09 00:57:44;;;;;;;19.05;12.25;;;;;;;1.22;100.00;99863.69;696656;28;4437;-71
2022/12/09 00:58:05;;;;;;;16.77;11.97;;;;;;;1.22;100.00;99863.69;693790;28;1176;-70
2022/12/09 00:58:25;;;;;;;16.15;12.10;;;;;;;1.22;100.00;99858.53;693332;28;1302;-71
2022/12/09 00:58:46;;;;;;;18.57;12.57;;;;;;;1.25;100.00;99867.22;689685;28;1457;-70
2022/12/09 00:59:07;;;;;;;17.73;12.05;;;;;;;1.27;100.00;99856.94;690144;28;1164;-70
2022/12/09 00:59:27;;;;;;;17.50;12.27;;;;;;;1.25;100.00;99868.94;693532;28;1353;-69
2022/12/09 00:59:48;;;;;;;17.57;12.50;;;;;;;1.23;100.00;99863.72;692420;28;1218;-71
2022/12/09 01:00:09;;;;;;;16.90;11.95;;;;;;;1.41;100.00;99863.22;691410;28;1183;-71
2022/12/09 01:00:30;;;;;;;16.50;11.75;;;;;;;1.40;100.00;99861.50;691996;28;1679;-71
2022/12/09 01:00:52;;;;;;;17.88;12.38;;;;;;;1.37;100.00;99861.44;689334;28;4451;-71
2022/12/09 01:01:13;;;;;;;18.92;11.75;;;;;;;1.36;100.00;99863.16;691013;28;1116;-72
2022/12/09 01:01:33;;;;;;;17.47;11.73;;;;;;;1.33;100.00;99860.50;693450;28;961;-72
2022/12/09 01:01:53;;;;;;;17.08;12.30;;;;;;;1.28;100.00;99858.69;694050;28;1257;-72
2022/12/09 01:02:14;;;;;;;17.00;11.73;;;;;;;1.26;100.00;99865.50;699409;28;1304;-72
2022/12/09 01:02:35;;;;;;;18.27;12.02;;;;;;;1.24;100.00;99860.31;701231;28;1370;-71
2022/12/09 01:02:57;;;;;;;17.73;12.15;;;;;;;1.22;100.00;99859.44;703437;27;1143;-71
2022/12/09 01:03:18;;;;;;;16.58;11.82;;;;;;;1.21;100.00;99865.41;704278;27;1300;-70
2022/12/09 01:03:39;;;;;;;18.63;12.20;;;;;;;1.22;100.00;99867.16;703757;27;4284;-71
2022/12/09 01:04:06;;;;;;;19.05;12.45;;;;;;;1.25;100.00;99867.22;703655;27;1393;-71
2022/12/09 01:04:27;;;;;;;16.95;12.25;;;;;;;1.30;100.00;99863.03;698988;28;1387;-71
2022/12/09 01:04:51;;;;;;;15.65;11.88;;;;;;;1.27;100.00;99857.81;698510;28;1039;-73
2022/12/09 01:05:11;;;;;;;17.83;11.90;;;;;;;1.24;100.00;99857.75;695757;28;1259;-71
2022/12/09 01:05:35;;;;;;;18.80;12.48;;;;;;;1.24;100.00;99855.19;697063;28;1194;-71
2022/12/09 01:05:55;;;;;;;16.45;12.20;;;;;;;1.22;100.00;99866.28;699478;28;1185;-72
2022/12/09 01:06:18;;;;;;;17.15;12.38;;;;;;;1.22;100.00;99858.53;695827;28;1309;-70
2022/12/09 01:06:40;;;;;;;17.88;12.30;;;;;;;1.21;100.00;99862.84;693738;28;4513;-70
2022/12/09 01:07:00;;;;;;;17.08;12.07;;;;;;;1.20;100.00;99858.53;694960;28;1395;-71
2022/12/09 01:07:21;;;;;;;17.93;12.17;;;;;;;1.21;100.00;99859.41;695666;28;1063;-71
2022/12/09 01:07:42;;;;;;;16.73;11.85;;;;;;;1.20;100.00;99861.09;695962;28;1191;-72
2022/12/09 01:08:02;;;;;;;17.47;12.47;;;;;;;1.22;100.00;99861.13;691909;28;1260;-71
2022/12/09 01:08:23;;;;;;;19.13;13.53;;;;;;;1.19;100.00;99861.94;693639;28;1179;-71
2022/12/09 01:08:43;;;;;;;18.37;13.10;;;;;;;1.19;100.00;99865.38;696412;28;1448;-73
2022/12/09 01:09:04;;;;;;;17.23;12.00;;;;;;;1.18;100.00;99863.66;694436;28;1167;-72
2022/12/09 01:09:24;;;;;;;18.63;12.45;;;;;;;1.18;100.00;99865.38;694775;28;1213;-71
2022/12/09 01:09:44;;;;;;;17.37;12.33;;;;;;;1.16;100.00;99859.28;691259;28;4661;-71
2022/12/09 01:10:05;;;;;;;16.20;11.82;;;;;;;1.15;100.00;99857.56;694555;28;1189;-71
2022/12/09 01:10:26;;;;;;;15.60;12.10;;;;;;;1.14;100.00;99861.84;696078;28;1283;-70
2022/12/09 01:10:47;;;;;;;18.35;12.65;;;;;;;1.13;100.00;99862.66;696995;28;1305;-72
2022/12/09 01:11:14;;;;;;;19.23;12.33;;;;;;;1.15;100.00;99865.28;694195;28;1139;-70
2022/12/09 01:11:35;;;;;;;18.33;11.95;;;;;;;1.15;100.00;99865.28;690188;28;1462;-69
2022/12/09 01:11:55;;;;;;;18.20;11.90;;;;;;;1.15;100.00;99857.56;691751;28;1337;-72
2022/12/09 01:12:16;;;;;;;17.47;12.60;;;;;;;1.13;100.00;99861.81;693491;28;1210;-72
2022/12/09 01:12:37;;;;;;;18.37;12.50;;;;;;;1.11;100.00;99863.47;693197;28;1004;-71
2022/12/09 01:12:57;;;;;;;16.50;11.77;;;;;;;1.11;100.00;99866.94;693875;28;4461;-72
2022/12/09 01:13:18;;;;;;;17.70;11.87;;;;;;;1.10;100.00;99864.34;695544;28;1373;-72
2022/12/09 01:13:38;;;;;;;17.70;12.35;;;;;;;1.09;100.00;99867.72;695720;28;1074;-71
2022/12/09 01:14:01;;;;;;;17.80;12.15;;;;;;;1.11;100.00;99868.63;697090;28;1296;-72
2022/12/09 01:14:22;;;;;;;18.73;12.68;;;;;;;1.12;100.00;99868.69;696345;28;1000;-72
2022/12/09 01:14:42;;;;;;;18.33;12.20;;;;;;;1.11;100.00;99872.09;696406;28;1437;-70
2022/12/09 01:15:04;;;;;;;17.47;11.73;;;;;;;1.13;100.00;99861.81;696885;28;1174;-72
2022/12/09 01:15:24;;;;;;;15.73;11.93;;;;;;;1.13;100.00;99869.53;695817;28;1458;-71
2022/12/09 01:15:47;;;;;;;17.17;12.45;;;;;;;1.13;100.00;99869.53;697224;28;4523;-72
2022/12/09 01:16:19;;;;;;;17.40;12.20;;;;;;;1.14;100.00;99863.56;698792;28;1369;-72
2022/12/09 01:16:41;;;;;;;16.83;11.73;;;;;;;1.12;100.00;99867.78;701164;28;1205;-70
2022/12/09 01:17:02;;;;;;;17.63;11.93;;;;;;;1.13;100.00;99869.53;698649;28;1222;-72
2022/12/09 01:17:22;;;;;;;18.02;11.80;;;;;;;1.12;100.00;99860.97;695132;28;1008;-70
2022/12/09 01:17:43;;;;;;;17.90;12.20;;;;;;;1.14;100.00;99866.13;692977;28;1234;-71
2022/12/09 01:18:03;;;;;;;16.40;11.93;;;;;;;1.14;100.00;99856.69;695387;28;1497;-71
2022/12/09 01:18:24;;;;;;;16.77;12.23;;;;;;;1.14;100.00;99858.41;695859;28;1594;-72
2022/12/09 01:18:45;;;;;;;18.65;12.07;;;;;;;1.14;100.00;99872.16;695968;28;4499;-72
2022/12/09 01:19:09;;;;;;;17.98;12.05;;;;;;;1.13;100.00;99860.09;696671;28;1095;-72
2022/12/09 01:19:30;;;;;;;17.85;11.95;;;;;;;1.13;100.00;99860.09;699485;28;1645;-72
2022/12/09 01:19:51;;;;;;;17.55;11.93;;;;;;;1.14;100.00;99861.00;695971;28;1475;-71
2022/12/09 01:20:11;;;;;;;17.83;12.47;;;;;;;1.14;100.00;99856.69;696233;28;1211;-70
2022/12/09 01:20:33;;;;;;;16.37;11.90;;;;;;;1.13;100.00;99857.53;696319;28;1361;-71
2022/12/09 01:20:57;;;;;;;17.05;12.02;;;;;;;1.13;100.00;99860.09;696609;28;1162;-71
2022/12/09 01:21:21;;;;;;;19.55;12.10;;;;;;;1.12;100.00;99863.53;697237;28;1480;-71
2022/12/09 01:21:41;;;;;;;19.25;12.13;;;;;;;1.13;100.00;99854.09;698467;28;4419;-73
2022/12/09 01:22:01;;;;;;;18.17;11.23;;;;;;;1.13;100.00;99859.25;696517;28;1278;-71
2022/12/09 01:22:22;;;;;;;17.63;11.30;;;;;;;1.15;100.00;99860.13;695079;28;1060;-72
2022/12/09 01:22:42;;;;;;;18.77;12.43;;;;;;;1.14;100.00;99861.84;694949;28;1158;-71
2022/12/09 01:23:03;;;;;;;17.43;12.37;;;;;;;1.15;100.00;99861.00;695363;28;1082;-70
2022/12/09 01:23:24;;;;;;;16.25;12.00;;;;;;;1.15;100.00;99858.44;695580;28;1021;-72
2022/12/09 01:23:45;;;;;;;15.73;12.02;;;;;;;1.16;100.00;99860.19;694227;28;1496;-72
2022/12/09 01:24:07;;;;;;;17.75;12.10;;;;;;;1.15;100.00;99868.75;698299;28;1254;-71
2022/12/09 01:24:28;;;;;;;19.58;12.23;;;;;;;1.18;100.00;99865.38;696458;28;1981;-72
2022/12/09 01:24:48;;;;;;;18.57;12.00;;;;;;;1.18;100.00;99862.78;693503;28;4458;-70
2022/12/09 01:25:09;;;;;;;16.87;12.37;;;;;;;1.17;100.00;99855.88;692831;28;1232;-70
2022/12/09 01:25:30;;;;;;;18.13;11.90;;;;;;;1.21;100.00;99862.84;694199;28;1092;-73
2022/12/09 01:25:50;;;;;;;18.73;12.20;;;;;;;1.22;100.00;99859.44;695992;28;1218;-72
2022/12/09 01:26:10;;;;;;;16.38;11.70;;;;;;;1.21;100.00;99859.41;690394;28;1219;-72
2022/12/09 01:26:31;;;;;;;15.53;11.40;;;;;;;1.18;100.00;99857.63;691525;28;1199;-71
2022/12/09 01:26:51;;;;;;;15.85;11.73;;;;;;;1.18;100.00;99860.22;692507;28;1004;-72
2022/12/09 01:27:12;;;;;;;17.23;12.02;;;;;;;1.18;100.00;99858.50;695550;28;1336;-71
2022/12/09 01:27:33;;;;;;;16.73;11.77;;;;;;;1.18;100.00;99862.78;694113;28;1085;-71
2022/12/09 01:27:53;;;;;;;17.63;11.30;;;;;;;1.19;100.00;99864.50;690525;28;4315;-70
2022/12/09 01:28:13;;;;;;;16.57;11.33;;;;;;;1.17;100.00;99861.03;692239;28;1139;-72
2022/12/09 01:28:35;;;;;;;15.37;11.50;;;;;;;1.20;100.00;99861.09;692233;28;1388;-71
2022/12/09 01:28:58;;;;;;;17.20;11.50;;;;;;;1.18;100.00;99861.06;695784;28;1246;-72
2022/12/09 01:29:19;;;;;;;17.67;11.45;;;;;;;1.16;100.00;99862.75;693155;28;1336;-70
2022/12/09 01:29:39;;;;;;;15.53;10.87;;;;;;;1.16;100.00;99859.28;692998;28;1164;-72
2022/12/09 01:29:59;;;;;;;15.00;10.90;;;;;;;1.23;100.00;99863.72;693145;28;1348;-71
2022/12/09 01:30:20;;;;;;;14.63;10.88;;;;;;;1.27;100.00;99862.94;693712;28;1139;-72
2022/12/09 01:30:43;;;;;;;15.38;10.88;;;;;;;1.36;100.00;99865.72;693125;28;4281;-71
2022/12/09 01:31:10;;;;;;;15.77;11.23;;;;;;;1.40;100.00;99870.91;696475;28;1421;-70
2022/12/09 01:31:30;;;;;;;15.60;11.30;;;;;;;1.45;100.00;99872.75;696942;28;1165;-71
2022/12/09 01:31:53;;;;;;;16.27;11.37;;;;;;;1.40;100.00;99868.34;699434;28;1328;-70
2022/12/09 01:32:13;;;;;;;16.98;10.95;;;;;;;1.34;100.00;99867.41;696455;28;1238;-72
2022/12/09 01:32:34;;;;;;;16.67;11.33;;;;;;;1.31;100.00;99867.31;698828;28;1191;-72
2022/12/09 01:32:54;;;;;;;15.55;11.32;;;;;;;1.28;100.00;99869.84;695306;28;1258;-71
2022/12/09 01:33:16;;;;;;;15.87;11.40;;;;;;;1.24;100.00;99868.03;690524;28;1183;-70
2022/12/09 01:33:38;;;;;;;16.58;11.75;;;;;;;1.22;100.00;99868.84;690326;28;1453;-71
2022/12/09 01:33:58;;;;;;;16.70;11.15;;;;;;;1.21;100.00;99873.13;689061;28;4269;-72
2022/12/09 01:34:19;;;;;;;16.25;10.95;;;;;;;1.16;100.00;99870.47;693059;28;1226;-71
2022/12/09 01:34:39;;;;;;;16.73;11.70;;;;;;;1.14;100.00;99873.84;693883;28;1264;-71
2022/12/09 01:35:01;;;;;;;16.38;11.40;;;;;;;1.16;100.00;99879.88;693763;28;1158;-71
2022/12/09 01:35:22;;;;;;;15.02;11.07;;;;;;;1.22;100.00;99872.31;695798;28;1333;-72
2022/12/09 01:35:42;;;;;;;15.30;11.17;;;;;;;1.36;100.00;99873.44;696076;28;1087;-72
2022/12/09 01:36:08;;;;;;;14.65;10.82;;;;;;;1.33;100.00;99869.94;696008;28;1276;-72
2022/12/09 01:36:29;;;;;;;15.63;10.90;;;;;;;1.41;100.00;99865.78;693572;28;1191;-71
2022/12/09 01:36:49;;;;;;;16.77;10.68;;;;;;;1.39;100.00;99866.63;692788;28;4507;-71
2022/12/09 01:37:10;;;;;;;15.73;10.77;;;;;;;1.39;100.00;99876.94;692859;28;1203;-71
2022/12/09 01:37:32;;;;;;;13.80;10.65;;;;;;;1.40;100.00;99868.34;695926;28;1372;-71
2022/12/09 01:37:52;;;;;;;15.65;10.98;;;;;;;1.39;100.00;99871.78;694946;28;1328;-71
2022/12/09 01:38:12;;;;;;;16.60;10.77;;;;;;;1.45;100.00;99867.59;697674;28;1439;-70
2022/12/09 01:38:33;;;;;;;16.33;10.85;;;;;;;1.41;100.00;99870.94;699492;28;1396;-71
2022/12/09 01:38:57;;;;;;;16.47;11.23;;;;;;;1.44;100.00;99870.16;695337;28;4907;-71